AirNav   Duncan Aviation - Near you to keep you flying
 
 1726 users online  

CT07 Ski's Landing Area Airport
Colchester, Connecticut, USA

GOING TO COLCHESTER?


FAA INFORMATION EFFECTIVE 01 DECEMBER 2022

Location

FAA Identifier: CT07
Lat/Long: 41-34-25.3540N 072-18-11.2930W
41-34.422567N 072-18.188217W
41.5737094,-72.3031369
(estimated)
Elevation: 510 ft. / 155 m (estimated)
Variation: 14W (1985)
From city: 2 miles E of COLCHESTER, CT
Time zone: UTC -5 (UTC -4 during Daylight Saving Time)
Zip code: 06415

Airport Operations

Airport use: Private use. Permission required prior to landing
Activation date: 08/1965
Control tower: no
ARTCC: BOSTON CENTER
FSS: BRIDGEPORT FLIGHT SERVICE STATION
Attendance: DAYLIGHT HOURS
Wind indicator: yes
Segmented circle: no

Airport Communications

WX ASOS at IJD (12 nm NE): 133.675 (860-456-8839)
WX AWOS-3 at SNC (15 nm SW): 118.325 (860-526-1551)
WX ASOS at HFD (18 nm NW): PHONE 860-527-5837
WX ASOS at GON (19 nm SE): 127.0 (860-449-8921)

Nearby radio navigation aids

VOR radial/distance  VOR name  Freq  Var
HFDr123/11.7HARTFORD VOR/DME114.9013W
ORWr288/13.7NORWICH VOR/DME110.0014W
GONr336/18.5GROTON VOR/DME110.8514W
MADr061/23.4MADISON VOR/DME110.4013W
PUTr236/30.8PUTNAM VOR/DME117.4014W
HTOr014/39.3HAMPTON VORTAC113.6013W
BAFr166/39.8BARNES VORTAC113.0014W

Airport Services

Airframe service: NONE
Powerplant service: NONE

Runway Information

Runway 9/27

Dimensions: 1500 x 75 ft. / 457 x 23 m
Surface: turf
RUNWAY 9  RUNWAY 27
Traffic pattern: leftleft
Obstructions: none60 ft. trees

Airport Ownership and Management from official FAA records

Ownership: Privately-owned
Owner: JOHN SKI
BOX C
FISHERS ISLAND, NY 06390
Phone 631-788-7533
Manager: JIM SKI
31 CHESTNUT HILL RD
COLCHESTER, CT 06415
Phone 631-788-7533
CELL: 860-334-3974.

Additional Remarks

FOR CD CTC YANKEE APCH AT 860-386-3597.

Instrument Procedures

There are no published instrument procedures at CT07.

Some nearby airports with instrument procedures:

KIJD - Windham Airport (12 nm NE)
KSNC - Chester Airport (15 nm SW)
KHFD - Hartford-Brainard Airport (18 nm NW)
KGON - Groton-New London Airport (19 nm SE)
0B8 - Elizabeth Field Airport (23 nm SE)
 
Loc | Ops | Rwys | IFR | FBO | Links
Com | Nav | Svcs | Stats | Notes

Silver City Flying Club
 
Area around CT07 (Ski's Landing Area Airport)
 
Road maps at: MapQuest Bing Google
 
Aerial photo
No photo
 
Sectional chart

 
Airport distance calculator
Flying to Ski's Landing Area Airport? Find the distance to fly.

From to CT07

Sunrise and sunset
Times for 08-Dec-2022
 Local
(UTC-5)
 Zulu
(UTC)
Morning civil twilight06:3311:33
Sunrise07:0412:04
Sunset16:1821:18
Evening civil twilight16:4921:49

Current date and time
Zulu (UTC)  08-Dec-2022 17:03:35
Local (UTC-5)  08-Dec-2022 12:03:35
 
METAR
KIJD 
12nm NE 
081652Z AUTO 33012G18KT 10SM CLR 11/01 A3016 RMK AO2 SLP214 T01060006
KSNC 
15nm SW 
081655Z AUTO 33010G19KT 10SM CLR 11/02 A3016 RMK AO2
KHFD 
18nm NW 
081653Z 32009KT 10SM SCT037 SCT048 11/02 A3020 RMK AO2 SLP225 T01110022
KGON 
18nm SE 
081656Z 33016G26KT 10SM CLR 13/03 A3013 RMK AO2 PK WND 34029/1600 SLP201 T01280028
TAF
KGON 
18nm SE 
081434Z 0815/0912 33014G24KT P6SM FEW035 SCT250 FM082100 33011KT P6SM FEW035 SCT250 FM090300 35008KT P6SM SCT250
NOTAMs
Click for the latest NOTAMs
NOTAMs are issued by the DoD/FAA and will open in a separate window not controlled by AirNav.

 

 
 

Would you like to see your business listed on this page?

 If your business provides an interesting product or service to pilots, flight crews, aircraft, or users of the Ski's Landing Area Airport, you should consider listing it here.  To start the listing process, click on the button below
 
Add a business
 

Other Pages about Ski's Landing Area Airport

Update a link
 
Copyright © AirNav, LLC. All rights reserved. Privacy Policy  Contact